Time,TemperatureF,DewpointF,PressureIn,WindDirection,WindDirectionDegrees,WindSpeedMPH,WindSpeedGustMPH,Humidity,HourlyPrecipIn,Conditions,Clouds,dailyrainin,SolarRadiationWatts/m^2,SoftwareType,DateUTC
2013-05-31 00:01:00,64.2,63.6,30.00,WSW,250,0.0,0.0,98,0.00,,CLR,0.00,0.00,VWS V14.01,2013-05-31 04:01:00,
2013-05-31 00:11:00,64.0,63.4,30.00,WSW,250,0.0,3.0,98,0.00,,CLR,0.00,0.00,VWS V14.01,2013-05-31 04:11:00,
2013-05-31 00:21:00,63.7,63.4,30.00,WSW,250,0.0,0.0,99,0.00,,CLR,0.00,0.00,VWS V14.01,2013-05-31 04:21:00,
2013-05-31 00:31:00,63.4,63.1,30.01,WSW,250,0.0,0.0,99,0.00,,CLR,0.00,0.00,VWS V14.01,2013-05-31 04:31:00,
2013-05-31 00:41:00,63.1,62.8,30.01,WSW,250,2.0,3.0,99,0.00,,CLR,0.00,0.00,VWS V14.01,2013-05-31 04:41:00,
2013-05-31 00:51:00,62.6,62.3,30.01,WSW,250,0.0,3.0,99,0.00,,CLR,0.00,0.00,VWS V14.01,2013-05-31 04:51:00,
2013-05-31 01:01:00,62.6,62.6,30.01,WSW,250,0.0,0.0,100,0.00,,CLR,0.00,0.00,VWS V14.01,2013-05-31 05:01:00,
2013-05-31 01:11:00,62.6,62.6,30.01,WSW,250,0.0,0.0,100,0.00,,CLR,0.00,0.00,VWS V14.01,2013-05-31 05:11:00,
2013-05-31 01:21:00,62.4,62.4,30.00,WSW,250,0.0,0.0,100,0.00,,CLR,0.00,0.00,VWS V14.01,2013-05-31 05:21:00,
2013-05-31 01:31:00,62.9,62.9,30.01,WSW,250,0.0,0.0,100,0.00,,CLR,0.00,0.00,VWS V14.01,2013-05-31 05:31:00,
2013-05-31 01:41:00,62.7,62.7,30.01,WSW,250,0.0,0.0,100,0.00,,CLR,0.00,0.00,VWS V14.01,2013-05-31 05:41:00,
2013-05-31 01:51:00,62.6,62.6,30.01,WSW,250,0.0,0.0,100,0.00,,CLR,0.00,0.00,VWS V14.01,2013-05-31 05:51:00,
2013-05-31 02:01:00,61.6,61.6,30.01,WSW,250,0.0,0.0,100,0.00,,CLR,0.00,0.00,VWS V14.01,2013-05-31 06:01:00,
2013-05-31 02:11:00,61.5,61.5,30.01,WSW,250,0.0,0.0,100,0.00,,CLR,0.00,0.00,VWS V14.01,2013-05-31 06:11:00,
2013-05-31 02:21:00,61.2,61.2,30.01,WSW,250,0.0,0.0,100,0.00,,CLR,0.00,0.00,VWS V14.01,2013-05-31 06:21:00,
2013-05-31 02:31:00,61.5,61.5,30.01,WSW,250,3.0,4.0,100,0.00,,CLR,0.00,0.00,VWS V14.01,2013-05-31 06:31:00,
2013-05-31 02:41:00,61.3,61.3,30.01,WSW,250,0.0,3.0,100,0.00,,CLR,0.00,0.00,VWS V14.01,2013-05-31 06:41:00,
2013-05-31 02:51:00,60.7,60.7,30.00,WSW,250,0.0,0.0,100,0.00,,CLR,0.00,0.00,VWS V14.01,2013-05-31 06:51:00,
2013-05-31 03:01:00,60.7,60.7,30.01,WSW,250,1.0,1.0,100,0.00,,CLR,0.00,0.00,VWS V14.01,2013-05-31 07:01:00,
2013-05-31 03:11:00,60.4,60.4,30.01,WSW,250,0.0,1.0,100,0.00,,CLR,0.00,0.00,VWS V14.01,2013-05-31 07:11:00,
2013-05-31 03:21:00,60.5,60.5,30.00,WSW,250,0.0,0.0,100,0.00,,CLR,0.00,0.00,VWS V14.01,2013-05-31 07:21:00,
2013-05-31 03:31:00,60.4,60.4,30.01,WSW,250,1.0,2.0,100,0.00,,CLR,0.00,0.00,VWS V14.01,2013-05-31 07:31:00,
2013-05-31 03:41:00,60.1,60.1,30.01,WSW,250,0.0,1.0,100,0.00,,CLR,0.00,0.00,VWS V14.01,2013-05-31 07:41:00,
2013-05-31 03:51:00,60.2,60.2,30.01,WSW,250,0.0,0.0,100,0.00,,CLR,0.00,0.00,VWS V14.01,2013-05-31 07:51:00,
2013-05-31 04:01:00,60.1,60.1,30.01,WSW,250,0.0,0.0,100,0.00,,CLR,0.00,0.00,VWS V14.01,2013-05-31 08:01:00,
2013-05-31 04:11:00,60.1,60.1,30.01,WSW,250,0.0,0.0,100,0.00,,CLR,0.00,0.00,VWS V14.01,2013-05-31 08:11:00,
2013-05-31 04:21:00,60.1,60.1,30.02,WSW,250,0.0,3.0,100,0.00,,CLR,0.00,0.00,VWS V14.01,2013-05-31 08:21:00,
2013-05-31 04:31:00,59.9,59.9,30.02,WSW,250,0.0,2.0,100,0.00,,CLR,0.00,0.00,VWS V14.01,2013-05-31 08:31:00,
2013-05-31 04:41:00,60.2,60.2,30.02,WSW,250,0.0,0.0,100,0.00,,CLR,0.00,0.00,VWS V14.01,2013-05-31 08:41:00,
2013-05-31 04:51:00,60.4,60.4,30.02,WSW,250,0.0,0.0,100,0.00,,CLR,0.00,0.00,VWS V14.01,2013-05-31 08:51:00,
2013-05-31 05:01:00,60.2,60.2,30.02,WSW,250,2.0,3.0,100,0.00,,CLR,0.00,0.00,VWS V14.01,2013-05-31 09:01:00,
2013-05-31 05:11:00,59.9,59.9,30.02,WSW,250,0.0,3.0,100,0.00,,CLR,0.00,0.00,VWS V14.01,2013-05-31 09:11:00,
2013-05-31 05:21:00,60.1,60.1,30.02,WSW,250,2.0,3.0,100,0.00,,CLR,0.00,9.00,VWS V14.01,2013-05-31 09:21:00,
2013-05-31 05:31:00,60.4,60.4,30.02,WSW,250,0.0,3.0,100,0.00,,CLR,0.00,14.00,VWS V14.01,2013-05-31 09:31:00,
2013-05-31 05:41:00,60.2,60.2,30.02,WSW,250,0.0,0.0,100,0.00,,CLR,0.00,18.00,VWS V14.01,2013-05-31 09:41:00,
2013-05-31 05:51:00,60.4,60.4,30.02,WSW,250,0.0,0.0,100,0.00,,CLR,0.00,21.00,VWS V14.01,2013-05-31 09:51:00,
2013-05-31 06:01:00,59.9,59.9,30.03,WSW,250,2.0,3.0,100,0.00,,CLR,0.00,23.00,VWS V14.01,2013-05-31 10:01:00,
2013-05-31 06:11:00,59.9,59.9,30.03,WSW,250,0.0,2.0,100,0.00,,CLR,0.00,26.00,VWS V14.01,2013-05-31 10:11:00,
2013-05-31 06:21:00,60.2,60.2,30.04,WSW,250,0.0,0.0,100,0.00,,CLR,0.00,30.00,VWS V14.01,2013-05-31 10:21:00,
2013-05-31 06:31:00,60.9,60.9,30.04,WSW,250,0.0,2.0,100,0.00,,CLR,0.00,33.00,VWS V14.01,2013-05-31 10:31:00,
2013-05-31 06:41:00,60.7,60.7,30.04,WSW,250,0.0,3.0,100,0.00,,CLR,0.00,35.00,VWS V14.01,2013-05-31 10:41:00,
2013-05-31 06:51:00,61.2,61.2,30.04,WSW,250,0.0,0.0,100,0.00,,CLR,0.00,39.00,VWS V14.01,2013-05-31 10:51:00,
2013-05-31 07:11:00,62.4,62.4,30.03,WSW,250,0.0,0.0,100,0.00,,CLR,0.00,49.00,VWS V14.01,2013-05-31 11:11:00,
2013-05-31 07:21:00,63.1,63.1,30.05,WSW,250,0.0,0.0,100,0.00,,CLR,0.00,44.00,VWS V14.01,2013-05-31 11:21:00,
2013-05-31 07:31:00,64.3,64.3,30.04,WSW,250,0.0,0.0,100,0.00,,CLR,0.00,46.00,VWS V14.01,2013-05-31 11:31:00,
2013-05-31 07:41:00,64.5,64.5,30.04,WSW,250,0.0,1.0,100,0.00,,CLR,0.00,244.00,VWS V14.01,2013-05-31 11:41:00,
2013-05-31 07:51:00,65.3,65.3,30.04,WSW,250,0.0,2.0,100,0.00,,CLR,0.00,67.00,VWS V14.01,2013-05-31 11:51:00,
2013-05-31 08:01:00,66.1,66.1,30.04,WSW,250,0.0,3.0,100,0.00,,CLR,0.00,56.00,VWS V14.01,2013-05-31 12:01:00,
2013-05-31 08:11:00,66.8,66.8,30.04,WSW,250,2.0,3.0,100,0.00,,CLR,0.00,54.00,VWS V14.01,2013-05-31 12:11:00,
2013-05-31 08:21:00,67.8,67.2,30.04,WSW,250,3.0,4.0,98,0.00,,CLR,0.00,125.00,VWS V14.01,2013-05-31 12:21:00,
2013-05-31 08:31:00,69.1,66.1,30.03,West,262,4.0,5.0,90,0.00,,CLR,0.00,70.00,VWS V14.01,2013-05-31 12:31:00,
2013-05-31 08:41:00,69.9,65.5,30.03,West,262,0.0,4.0,86,0.00,,CLR,0.00,63.00,VWS V14.01,2013-05-31 12:41:00,
2013-05-31 08:51:00,71.1,66.0,30.04,West,262,0.0,3.0,84,0.00,,CLR,0.00,113.00,VWS V14.01,2013-05-31 12:51:00,
2013-05-31 09:01:00,72.1,65.6,30.03,West,262,0.0,0.0,80,0.00,,CLR,0.00,69.00,VWS V14.01,2013-05-31 13:01:00,
2013-05-31 09:11:00,73.0,65.4,30.03,West,262,0.0,0.0,77,0.00,,CLR,0.00,72.00,VWS V14.01,2013-05-31 13:11:00,
2013-05-31 09:21:00,72.8,65.6,30.03,West,262,0.0,0.0,78,0.00,,CLR,0.00,158.00,VWS V14.01,2013-05-31 13:21:00,
2013-05-31 09:31:00,74.6,65.8,30.02,West,262,0.0,0.0,74,0.00,,CLR,0.00,77.00,VWS V14.01,2013-05-31 13:31:00,
2013-05-31 09:41:00,75.3,65.7,30.02,West,262,0.0,2.0,72,0.00,,CLR,0.00,81.00,VWS V14.01,2013-05-31 13:41:00,
2013-05-31 09:51:00,76.1,66.0,30.02,West,262,0.0,1.0,71,0.00,,CLR,0.00,130.00,VWS V14.01,2013-05-31 13:51:00,
2013-05-31 10:01:00,77.4,65.6,30.02,West,262,2.0,3.0,67,0.00,,CLR,0.00,95.00,VWS V14.01,2013-05-31 14:01:00,
2013-05-31 10:11:00,78.1,67.1,30.02,West,263,5.0,5.0,69,0.00,,CLR,0.00,98.00,VWS V14.01,2013-05-31 14:11:00,
2013-05-31 10:21:00,79.0,65.8,30.00,West,263,0.0,6.0,64,0.00,,CLR,0.00,311.00,VWS V14.01,2013-05-31 14:21:00,
2013-05-31 10:31:00,80.3,66.1,30.00,West,262,2.0,5.0,62,0.00,,CLR,0.00,120.00,VWS V14.01,2013-05-31 14:31:00,
2013-05-31 10:41:00,81.2,65.5,30.00,WSW,246,3.0,9.0,59,0.00,,CLR,0.00,134.00,VWS V14.01,2013-05-31 14:41:00,
2013-05-31 10:51:00,82.2,65.0,30.00,West,278,6.0,11.0,56,0.00,,CLR,0.00,858.00,VWS V14.01,2013-05-31 14:51:00,
2013-05-31 11:01:00,83.4,64.5,30.00,West,262,8.0,9.0,53,0.00,,CLR,0.00,882.00,VWS V14.01,2013-05-31 15:01:00,
2013-05-31 11:11:00,84.0,65.1,30.00,WSW,237,5.0,10.0,53,0.00,,CLR,0.00,907.00,VWS V14.01,2013-05-31 15:11:00,
2013-05-31 11:21:00,84.5,65.0,29.99,West,274,6.0,10.0,52,0.00,,CLR,0.00,965.00,VWS V14.01,2013-05-31 15:21:00,
2013-05-31 11:31:00,84.5,65.0,29.99,West,264,11.0,15.0,52,0.00,,CLR,0.00,944.00,VWS V14.01,2013-05-31 15:31:00,
2013-05-31 11:41:00,85.1,62.6,29.99,WSW,240,13.0,13.0,47,0.00,,CLR,0.00,930.00,VWS V14.01,2013-05-31 15:41:00,
2013-05-31 11:51:00,85.5,62.4,29.98,West,259,12.0,17.0,46,0.00,,CLR,0.00,940.00,VWS V14.01,2013-05-31 15:51:00,
2013-05-31 12:01:00,86.1,62.9,29.98,WSW,257,16.0,20.0,46,0.00,,CLR,0.00,953.00,VWS V14.01,2013-05-31 16:01:00,
2013-05-31 12:11:00,86.1,62.9,29.98,WNW,290,5.0,16.0,46,0.00,,CLR,0.00,969.00,VWS V14.01,2013-05-31 16:11:00,
2013-05-31 12:21:00,87.0,63.7,29.97,West,263,10.0,15.0,46,0.00,,CLR,0.00,972.00,VWS V14.01,2013-05-31 16:21:00,
2013-05-31 12:31:00,87.4,63.5,29.97,WNW,285,9.0,19.0,45,0.00,,CLR,0.00,981.00,VWS V14.01,2013-05-31 16:31:00,
2013-05-31 12:41:00,87.6,62.4,29.97,West,268,10.0,17.0,43,0.00,,CLR,0.00,984.00,VWS V14.01,2013-05-31 16:41:00,
2013-05-31 12:51:00,87.8,63.2,29.97,WSW,248,10.0,16.0,44,0.00,,CLR,0.00,1002.00,VWS V14.01,2013-05-31 16:51:00,
2013-05-31 13:01:00,88.2,64.2,29.96,WSW,257,10.0,16.0,45,0.00,,CLR,0.00,1004.00,VWS V14.01,2013-05-31 17:01:00,
2013-05-31 13:11:00,88.6,63.9,29.96,SSW,208,8.0,12.0,44,0.00,,CLR,0.00,1056.00,VWS V14.01,2013-05-31 17:11:00,
2013-05-31 13:21:00,89.5,64.1,29.95,West,270,13.0,19.0,43,0.00,,CLR,0.00,1011.00,VWS V14.01,2013-05-31 17:21:00,
2013-05-31 13:31:00,89.5,64.1,29.95,WNW,282,11.0,15.0,43,0.00,,CLR,0.00,981.00,VWS V14.01,2013-05-31 17:31:00,
2013-05-31 13:41:00,89.7,62.9,29.95,West,260,11.0,17.0,41,0.00,,CLR,0.00,1013.00,VWS V14.01,2013-05-31 17:41:00,
2013-05-31 13:51:00,90.1,62.5,29.95,WNW,290,5.0,18.0,40,0.00,,CLR,0.00,1069.00,VWS V14.01,2013-05-31 17:51:00,
2013-05-31 14:01:00,89.9,61.7,29.95,WNW,284,7.0,13.0,39,0.00,,CLR,0.00,1060.00,VWS V14.01,2013-05-31 18:01:00,
2013-05-31 14:11:00,89.7,62.2,29.95,WSW,252,11.0,19.0,40,0.00,,SCT065,0.00,1005.00,VWS V14.01,2013-05-31 18:11:00,
2013-05-31 14:21:00,90.1,62.5,29.94,West,281,14.0,14.0,40,0.00,,SCT065,0.00,206.00,VWS V14.01,2013-05-31 18:21:00,
2013-05-31 14:31:00,90.5,61.5,29.94,West,268,3.0,15.0,38,0.00,,SCT065,0.00,953.00,VWS V14.01,2013-05-31 18:31:00,
2013-05-31 14:41:00,91.0,62.6,29.94,WSW,255,7.0,14.0,39,0.00,,SCT065,0.00,889.00,VWS V14.01,2013-05-31 18:41:00,
2013-05-31 14:51:00,91.4,63.0,29.93,NW,326,7.0,13.0,39,0.00,,SCT065,0.00,916.00,VWS V14.01,2013-05-31 18:51:00,
2013-05-31 15:01:00,91.4,60.7,29.93,West,271,9.0,18.0,36,0.00,,SCT065,0.00,765.00,VWS V14.01,2013-05-31 19:01:00,
2013-05-31 15:11:00,89.3,60.4,29.93,WSW,250,6.0,12.0,38,0.00,,BKN085,0.00,149.00,VWS V14.01,2013-05-31 19:11:00,
2013-05-31 15:21:00,89.5,60.6,29.92,West,262,12.0,12.0,38,0.00,,BKN085,0.00,708.00,VWS V14.01,2013-05-31 19:21:00,
2013-05-31 15:31:00,90.1,61.8,29.92,West,259,7.0,13.0,39,0.00,,BKN085,0.00,751.00,VWS V14.01,2013-05-31 19:31:00,
2013-05-31 15:41:00,91.2,59.8,29.92,WSW,252,10.0,18.0,35,0.00,,BKN085,0.00,740.00,VWS V14.01,2013-05-31 19:41:00,
2013-05-31 15:51:00,91.2,60.5,29.91,SW,229,12.0,16.0,36,0.00,,BKN085,0.00,686.00,VWS V14.01,2013-05-31 19:51:00,
2013-05-31 16:01:00,91.0,65.4,29.90,West,264,11.0,16.0,43,0.00,,BKN085,0.00,596.00,VWS V14.01,2013-05-31 20:01:00,
2013-05-31 16:11:00,89.9,60.9,29.90,WSW,238,8.0,13.0,38,0.00,,FEW075,0.00,504.00,VWS V14.01,2013-05-31 20:11:00,
2013-05-31 16:21:00,88.0,66.5,29.90,SW,232,6.0,13.0,49,0.00,,FEW075,0.00,610.00,VWS V14.01,2013-05-31 20:21:00,
2013-05-31 16:31:00,87.8,61.9,29.90,West,269,12.0,19.0,42,0.00,,FEW075,0.00,624.00,VWS V14.01,2013-05-31 20:31:00,
2013-05-31 16:41:00,89.3,61.1,29.90,WSW,258,9.0,16.0,39,0.00,,FEW075,0.00,608.00,VWS V14.01,2013-05-31 20:41:00,
2013-05-31 16:51:00,89.5,62.0,29.89,WSW,253,13.0,13.0,40,0.00,,FEW075,0.00,554.00,VWS V14.01,2013-05-31 20:51:00,
2013-05-31 17:01:00,89.9,64.4,29.89,West,266,9.0,15.0,43,0.00,,FEW075,0.00,520.00,VWS V14.01,2013-05-31 21:01:00,
2013-05-31 17:11:00,90.7,57.7,29.89,West,281,12.0,16.0,33,0.00,,SCT075,0.00,496.00,VWS V14.01,2013-05-31 21:11:00,
2013-05-31 17:21:00,89.5,60.6,29.89,SW,236,7.0,15.0,38,0.00,,SCT075,0.00,469.00,VWS V14.01,2013-05-31 21:21:00,
2013-05-31 17:31:00,89.9,61.7,29.88,West,260,10.0,16.0,39,0.00,,SCT075,0.00,445.00,VWS V14.01,2013-05-31 21:31:00,
2013-05-31 17:41:00,89.9,56.1,29.88,WSW,254,7.0,12.0,32,0.00,,SCT075,0.00,396.00,VWS V14.01,2013-05-31 21:41:00,
2013-05-31 17:51:00,89.0,61.6,29.87,WSW,243,9.0,15.0,40,0.00,,SCT075,0.00,311.00,VWS V14.01,2013-05-31 21:51:00,
2013-05-31 18:01:00,89.3,56.5,29.87,West,274,10.0,15.0,33,0.00,,SCT075,0.00,315.00,VWS V14.01,2013-05-31 22:01:00,
2013-05-31 18:11:00,89.3,56.5,29.87,WSW,240,11.0,16.0,33,0.00,,FEW075,0.00,316.00,VWS V14.01,2013-05-31 22:11:00,
2013-05-31 18:21:00,88.8,53.4,29.87,WSW,249,15.0,17.0,30,0.00,,FEW075,0.00,276.00,VWS V14.01,2013-05-31 22:21:00,
2013-05-31 18:31:00,88.8,53.4,29.87,West,264,14.0,18.0,30,0.00,,FEW075,0.00,237.00,VWS V14.01,2013-05-31 22:31:00,
2013-05-31 18:41:00,88.0,55.3,29.87,WSW,252,12.0,15.0,33,0.00,,FEW075,0.00,197.00,VWS V14.01,2013-05-31 22:41:00,
2013-05-31 18:51:00,87.8,53.4,29.87,WSW,252,7.0,17.0,31,0.00,,FEW075,0.00,165.00,VWS V14.01,2013-05-31 22:51:00,
2013-05-31 19:01:00,85.3,54.6,29.87,WSW,249,6.0,14.0,35,0.00,,FEW075,0.00,98.00,VWS V14.01,2013-05-31 23:01:00,
2013-05-31 19:11:00,84.7,56.3,29.87,WSW,257,7.0,12.0,38,0.00,,CLR,0.00,58.00,VWS V14.01,2013-05-31 23:11:00,
2013-05-31 19:21:00,84.7,54.8,29.87,SW,234,4.0,10.0,36,0.00,,CLR,0.00,49.00,VWS V14.01,2013-05-31 23:21:00,
2013-05-31 19:31:00,82.4,58.3,29.87,WSW,258,6.0,10.0,44,0.00,,CLR,0.00,42.00,VWS V14.01,2013-05-31 23:31:00,
2013-05-31 19:41:00,81.4,57.4,29.87,West,272,5.0,9.0,44,0.00,,CLR,0.00,33.00,VWS V14.01,2013-05-31 23:41:00,
2013-05-31 19:51:00,79.8,58.4,29.88,WSW,252,3.0,5.0,48,0.00,,CLR,0.00,23.00,VWS V14.01,2013-05-31 23:51:00,
2013-05-31 20:01:00,78.8,58.6,29.88,WSW,252,3.0,5.0,50,0.00,,CLR,0.00,14.00,VWS V14.01,2013-06-01 00:01:00,
2013-05-31 20:11:00,77.7,58.7,29.88,WSW,252,0.0,4.0,52,0.00,,CLR,0.00,5.00,VWS V14.01,2013-06-01 00:11:00,
2013-05-31 20:21:00,76.5,60.2,29.88,WSW,252,0.0,0.0,57,0.00,,CLR,0.00,0.00,VWS V14.01,2013-06-01 00:21:00,
2013-05-31 20:31:00,75.6,60.8,29.88,WSW,252,0.0,0.0,60,0.00,,CLR,0.00,0.00,VWS V14.01,2013-06-01 00:31:00,
2013-05-31 20:41:00,74.6,61.6,29.88,WSW,252,0.0,4.0,64,0.00,,CLR,0.00,0.00,VWS V14.01,2013-06-01 00:41:00,
2013-05-31 20:51:00,73.9,61.4,29.89,WSW,252,0.0,3.0,65,0.00,,CLR,0.00,0.00,VWS V14.01,2013-06-01 00:51:00,
2013-05-31 21:01:00,72.7,61.5,29.89,WSW,252,0.0,0.0,68,0.00,,CLR,0.00,0.00,VWS V14.01,2013-06-01 01:01:00,
2013-05-31 21:11:00,72.3,61.6,29.89,WSW,252,0.0,0.0,69,0.00,,CLR,0.00,0.00,VWS V14.01,2013-06-01 01:11:00,
2013-05-31 21:21:00,72.0,61.7,29.89,WSW,252,0.0,0.0,70,0.00,,CLR,0.00,0.00,VWS V14.01,2013-06-01 01:21:00,
2013-05-31 21:31:00,71.3,61.8,29.90,WSW,252,0.0,0.0,72,0.00,,CLR,0.00,0.00,VWS V14.01,2013-06-01 01:31:00,
2013-05-31 21:41:00,70.6,61.5,29.90,WSW,252,0.0,0.0,73,0.00,,CLR,0.00,0.00,VWS V14.01,2013-06-01 01:41:00,
2013-05-31 21:51:00,71.1,61.6,29.90,WSW,252,0.0,0.0,72,0.00,,CLR,0.00,0.00,VWS V14.01,2013-06-01 01:51:00,
2013-05-31 22:01:00,71.5,61.2,29.90,WSW,252,0.0,0.0,70,0.00,,CLR,0.00,0.00,VWS V14.01,2013-06-01 02:01:00,
2013-05-31 22:11:00,70.8,61.7,29.90,WSW,252,0.0,0.0,73,0.00,,CLR,0.00,0.00,VWS V14.01,2013-06-01 02:11:00,
2013-05-31 22:21:00,70.1,61.8,29.90,WSW,252,0.0,0.0,75,0.00,,CLR,0.00,0.00,VWS V14.01,2013-06-01 02:21:00,
2013-05-31 22:31:00,69.4,61.9,29.90,WSW,252,0.0,0.0,77,0.00,,CLR,0.00,0.00,VWS V14.01,2013-06-01 02:31:00,
2013-05-31 22:41:00,68.8,62.0,29.90,WSW,252,0.0,0.0,79,0.00,,CLR,0.00,0.00,VWS V14.01,2013-06-01 02:41:00,
2013-05-31 22:51:00,68.9,62.1,29.90,WSW,252,0.0,0.0,79,0.00,,CLR,0.00,0.00,VWS V14.01,2013-06-01 02:51:00,
2013-05-31 23:01:00,68.9,61.8,29.90,WSW,252,0.0,0.0,78,0.00,,CLR,0.00,0.00,VWS V14.01,2013-06-01 03:01:00,
2013-05-31 23:11:00,69.3,62.2,29.90,WSW,252,0.0,0.0,78,0.00,,CLR,0.00,0.00,VWS V14.01,2013-06-01 03:11:00,
2013-05-31 23:21:00,69.3,61.8,29.90,WSW,252,0.0,0.0,77,0.00,,CLR,0.00,0.00,VWS V14.01,2013-06-01 03:21:00,
2013-05-31 23:31:00,70.3,62.0,29.90,WSW,252,0.0,0.0,75,0.00,,CLR,0.00,0.00,VWS V14.01,2013-06-01 03:31:00,
2013-05-31 23:41:00,68.8,62.7,29.90,WSW,252,0.0,0.0,81,0.00,,CLR,0.00,0.00,VWS V14.01,2013-06-01 03:41:00,
2013-05-31 23:51:00,68.9,62.1,29.90,WSW,252,0.0,0.0,79,0.00,,CLR,0.00,0.00,VWS V14.01,2013-06-01 03:51:00,